sensor_id;sensor_type;location;lat;lon;timestamp;P1;durP1;ratioP1;P2;durP2;ratioP2
5343;SDS011;2694;48.950;8.970;2022-09-09T00:00:47;7.03;;;2.22;;
5343;SDS011;2694;48.950;8.970;2022-09-09T00:03:17;6.07;;;1.80;;
5343;SDS011;2694;48.950;8.970;2022-09-09T00:05:50;5.63;;;1.77;;
5343;SDS011;2694;48.950;8.970;2022-09-09T00:08:33;4.90;;;2.00;;
5343;SDS011;2694;48.950;8.970;2022-09-09T00:11:10;5.35;;;1.58;;
5343;SDS011;2694;48.950;8.970;2022-09-09T00:13:44;5.63;;;1.60;;
5343;SDS011;2694;48.950;8.970;2022-09-09T00:16:15;8.50;;;1.60;;
5343;SDS011;2694;48.950;8.970;2022-09-09T00:18:49;10.02;;;1.90;;
5343;SDS011;2694;48.950;8.970;2022-09-09T00:21:21;3.55;;;1.20;;
5343;SDS011;2694;48.950;8.970;2022-09-09T00:23:52;4.57;;;1.73;;
5343;SDS011;2694;48.950;8.970;2022-09-09T00:26:22;6.57;;;1.55;;
5343;SDS011;2694;48.950;8.970;2022-09-09T00:28:56;7.18;;;1.50;;
5343;SDS011;2694;48.950;8.970;2022-09-09T00:31:30;4.55;;;1.30;;
5343;SDS011;2694;48.950;8.970;2022-09-09T00:34:00;5.75;;;1.50;;
5343;SDS011;2694;48.950;8.970;2022-09-09T00:36:34;5.18;;;1.40;;
5343;SDS011;2694;48.950;8.970;2022-09-09T00:39:03;3.15;;;1.35;;
5343;SDS011;2694;48.950;8.970;2022-09-09T00:41:35;2.20;;;1.17;;
5343;SDS011;2694;48.950;8.970;2022-09-09T00:44:19;5.55;;;1.15;;
5343;SDS011;2694;48.950;8.970;2022-09-09T00:46:54;3.83;;;0.98;;
5343;SDS011;2694;48.950;8.970;2022-09-09T00:49:35;4.55;;;1.35;;
5343;SDS011;2694;48.950;8.970;2022-09-09T00:52:15;4.63;;;1.20;;
5343;SDS011;2694;48.950;8.970;2022-09-09T00:54:47;7.90;;;1.30;;
5343;SDS011;2694;48.950;8.970;2022-09-09T00:57:25;4.00;;;1.10;;
5343;SDS011;2694;48.950;8.970;2022-09-09T00:59:56;8.98;;;1.25;;
5343;SDS011;2694;48.950;8.970;2022-09-09T01:02:39;2.47;;;1.20;;
5343;SDS011;2694;48.950;8.970;2022-09-09T01:05:17;4.28;;;0.80;;
5343;SDS011;2694;48.950;8.970;2022-09-09T01:07:49;2.85;;;1.48;;
5343;SDS011;2694;48.950;8.970;2022-09-09T01:10:18;3.40;;;1.30;;
5343;SDS011;2694;48.950;8.970;2022-09-09T01:12:52;4.10;;;1.70;;
5343;SDS011;2694;48.950;8.970;2022-09-09T01:15:22;2.72;;;1.10;;
5343;SDS011;2694;48.950;8.970;2022-09-09T01:17:52;4.50;;;1.60;;
5343;SDS011;2694;48.950;8.970;2022-09-09T01:20:25;5.00;;;1.50;;
5343;SDS011;2694;48.950;8.970;2022-09-09T01:26:13;10.35;;;1.50;;
5343;SDS011;2694;48.950;8.970;2022-09-09T01:28:43;4.80;;;1.20;;
5343;SDS011;2694;48.950;8.970;2022-09-09T01:31:14;1.70;;;1.00;;
5343;SDS011;2694;48.950;8.970;2022-09-09T01:33:44;3.30;;;1.30;;
5343;SDS011;2694;48.950;8.970;2022-09-09T01:36:12;3.60;;;1.60;;
5343;SDS011;2694;48.950;8.970;2022-09-09T01:38:44;4.95;;;1.40;;
5343;SDS011;2694;48.950;8.970;2022-09-09T01:41:10;5.38;;;1.88;;
5343;SDS011;2694;48.950;8.970;2022-09-09T01:43:39;4.38;;;1.20;;
5343;SDS011;2694;48.950;8.970;2022-09-09T01:46:06;4.10;;;1.17;;
5343;SDS011;2694;48.950;8.970;2022-09-09T01:48:33;4.10;;;0.90;;
5343;SDS011;2694;48.950;8.970;2022-09-09T01:51:00;4.03;;;1.00;;
5343;SDS011;2694;48.950;8.970;2022-09-09T01:53:26;2.80;;;1.08;;
5343;SDS011;2694;48.950;8.970;2022-09-09T01:55:56;3.28;;;1.13;;
5343;SDS011;2694;48.950;8.970;2022-09-09T01:58:32;4.50;;;1.13;;
5343;SDS011;2694;48.950;8.970;2022-09-09T02:01:08;2.40;;;0.82;;
5343;SDS011;2694;48.950;8.970;2022-09-09T02:03:43;2.00;;;0.98;;
5343;SDS011;2694;48.950;8.970;2022-09-09T02:06:18;4.22;;;1.30;;
5343;SDS011;2694;48.950;8.970;2022-09-09T02:08:48;4.60;;;1.10;;
5343;SDS011;2694;48.950;8.970;2022-09-09T02:11:16;3.65;;;1.30;;
5343;SDS011;2694;48.950;8.970;2022-09-09T02:13:46;3.80;;;1.30;;
5343;SDS011;2694;48.950;8.970;2022-09-09T02:16:17;4.20;;;0.98;;
5343;SDS011;2694;48.950;8.970;2022-09-09T02:18:50;2.43;;;1.30;;
5343;SDS011;2694;48.950;8.970;2022-09-09T02:21:17;2.75;;;0.90;;
5343;SDS011;2694;48.950;8.970;2022-09-09T02:23:46;2.60;;;0.80;;
5343;SDS011;2694;48.950;8.970;2022-09-09T02:26:17;5.20;;;1.00;;
5343;SDS011;2694;48.950;8.970;2022-09-09T02:28:47;4.75;;;0.60;;
5343;SDS011;2694;48.950;8.970;2022-09-09T02:31:18;4.18;;;0.95;;
5343;SDS011;2694;48.950;8.970;2022-09-09T02:33:49;3.38;;;1.02;;
5343;SDS011;2694;48.950;8.970;2022-09-09T02:36:18;4.63;;;1.10;;
5343;SDS011;2694;48.950;8.970;2022-09-09T02:38:46;2.77;;;1.20;;
5343;SDS011;2694;48.950;8.970;2022-09-09T02:41:18;2.50;;;1.00;;
5343;SDS011;2694;48.950;8.970;2022-09-09T02:43:46;2.60;;;1.00;;
5343;SDS011;2694;48.950;8.970;2022-09-09T02:46:18;4.15;;;0.95;;
5343;SDS011;2694;48.950;8.970;2022-09-09T02:48:58;4.22;;;1.10;;
5343;SDS011;2694;48.950;8.970;2022-09-09T02:51:29;3.75;;;0.90;;
5343;SDS011;2694;48.950;8.970;2022-09-09T02:53:59;1.27;;;0.70;;
5343;SDS011;2694;48.950;8.970;2022-09-09T02:56:29;4.40;;;1.00;;
5343;SDS011;2694;48.950;8.970;2022-09-09T02:59:02;6.25;;;1.08;;
5343;SDS011;2694;48.950;8.970;2022-09-09T03:01:31;1.48;;;0.60;;
5343;SDS011;2694;48.950;8.970;2022-09-09T03:03:58;3.55;;;0.60;;
5343;SDS011;2694;48.950;8.970;2022-09-09T03:06:25;7.40;;;1.13;;
5343;SDS011;2694;48.950;8.970;2022-09-09T03:08:53;5.45;;;1.20;;
5343;SDS011;2694;48.950;8.970;2022-09-09T03:11:19;3.55;;;0.73;;
5343;SDS011;2694;48.950;8.970;2022-09-09T03:13:46;3.03;;;0.95;;
5343;SDS011;2694;48.950;8.970;2022-09-09T03:16:13;3.67;;;0.75;;
5343;SDS011;2694;48.950;8.970;2022-09-09T03:18:42;6.05;;;1.02;;
5343;SDS011;2694;48.950;8.970;2022-09-09T03:21:10;3.60;;;1.30;;
5343;SDS011;2694;48.950;8.970;2022-09-09T03:23:37;2.50;;;1.10;;
5343;SDS011;2694;48.950;8.970;2022-09-09T03:26:04;4.47;;;1.23;;
5343;SDS011;2694;48.950;8.970;2022-09-09T03:28:31;4.97;;;1.15;;
5343;SDS011;2694;48.950;8.970;2022-09-09T03:30:58;3.20;;;1.00;;
5343;SDS011;2694;48.950;8.970;2022-09-09T03:33:26;5.85;;;1.20;;
5343;SDS011;2694;48.950;8.970;2022-09-09T03:35:54;2.55;;;1.00;;
5343;SDS011;2694;48.950;8.970;2022-09-09T03:38:22;6.13;;;1.00;;
5343;SDS011;2694;48.950;8.970;2022-09-09T03:40:49;3.53;;;0.95;;
5343;SDS011;2694;48.950;8.970;2022-09-09T03:43:16;4.93;;;1.05;;
5343;SDS011;2694;48.950;8.970;2022-09-09T03:45:45;1.30;;;1.00;;
5343;SDS011;2694;48.950;8.970;2022-09-09T03:48:12;3.20;;;0.90;;
5343;SDS011;2694;48.950;8.970;2022-09-09T03:50:43;4.20;;;0.80;;
5343;SDS011;2694;48.950;8.970;2022-09-09T03:53:11;6.40;;;1.10;;
5343;SDS011;2694;48.950;8.970;2022-09-09T03:55:38;3.70;;;1.10;;
5343;SDS011;2694;48.950;8.970;2022-09-09T03:58:06;2.60;;;0.75;;
5343;SDS011;2694;48.950;8.970;2022-09-09T04:00:33;3.63;;;0.73;;
5343;SDS011;2694;48.950;8.970;2022-09-09T04:03:00;2.00;;;0.55;;
5343;SDS011;2694;48.950;8.970;2022-09-09T04:05:27;2.00;;;0.60;;
5343;SDS011;2694;48.950;8.970;2022-09-09T04:07:54;4.55;;;0.80;;
5343;SDS011;2694;48.950;8.970;2022-09-09T04:10:22;3.85;;;1.00;;
5343;SDS011;2694;48.950;8.970;2022-09-09T04:12:49;3.13;;;1.08;;
5343;SDS011;2694;48.950;8.970;2022-09-09T04:15:17;6.40;;;0.60;;
5343;SDS011;2694;48.950;8.970;2022-09-09T04:17:44;1.75;;;0.60;;
5343;SDS011;2694;48.950;8.970;2022-09-09T04:20:11;2.50;;;0.60;;
5343;SDS011;2694;48.950;8.970;2022-09-09T04:22:38;1.95;;;0.70;;
5343;SDS011;2694;48.950;8.970;2022-09-09T04:25:05;5.60;;;0.70;;
5343;SDS011;2694;48.950;8.970;2022-09-09T04:27:33;3.67;;;0.90;;
5343;SDS011;2694;48.950;8.970;2022-09-09T04:30:00;2.03;;;0.60;;
5343;SDS011;2694;48.950;8.970;2022-09-09T04:32:27;3.35;;;0.93;;
5343;SDS011;2694;48.950;8.970;2022-09-09T04:34:53;1.52;;;0.50;;
5343;SDS011;2694;48.950;8.970;2022-09-09T04:37:20;2.67;;;0.50;;
5343;SDS011;2694;48.950;8.970;2022-09-09T04:39:47;1.50;;;0.40;;
5343;SDS011;2694;48.950;8.970;2022-09-09T04:42:14;3.38;;;1.10;;
5343;SDS011;2694;48.950;8.970;2022-09-09T04:44:42;3.00;;;1.10;;
5343;SDS011;2694;48.950;8.970;2022-09-09T04:47:09;2.97;;;1.10;;
5343;SDS011;2694;48.950;8.970;2022-09-09T04:49:36;1.40;;;1.00;;
5343;SDS011;2694;48.950;8.970;2022-09-09T04:52:04;6.00;;;1.05;;
5343;SDS011;2694;48.950;8.970;2022-09-09T04:54:31;2.75;;;0.77;;
5343;SDS011;2694;48.950;8.970;2022-09-09T04:56:58;2.40;;;0.60;;
5343;SDS011;2694;48.950;8.970;2022-09-09T04:59:24;2.60;;;1.08;;
5343;SDS011;2694;48.950;8.970;2022-09-09T05:01:52;3.50;;;1.20;;
5343;SDS011;2694;48.950;8.970;2022-09-09T05:04:20;3.10;;;0.75;;
5343;SDS011;2694;48.950;8.970;2022-09-09T05:06:46;2.35;;;0.80;;
5343;SDS011;2694;48.950;8.970;2022-09-09T05:09:13;1.50;;;0.60;;
5343;SDS011;2694;48.950;8.970;2022-09-09T05:11:40;1.90;;;0.73;;
5343;SDS011;2694;48.950;8.970;2022-09-09T05:14:07;2.00;;;0.80;;
5343;SDS011;2694;48.950;8.970;2022-09-09T05:16:36;2.50;;;0.50;;
5343;SDS011;2694;48.950;8.970;2022-09-09T05:19:04;2.90;;;1.30;;
5343;SDS011;2694;48.950;8.970;2022-09-09T05:21:33;3.15;;;1.42;;
5343;SDS011;2694;48.950;8.970;2022-09-09T05:24:00;4.00;;;0.90;;
5343;SDS011;2694;48.950;8.970;2022-09-09T05:26:27;1.77;;;0.60;;
5343;SDS011;2694;48.950;8.970;2022-09-09T05:28:54;1.67;;;0.40;;
5343;SDS011;2694;48.950;8.970;2022-09-09T05:31:22;2.80;;;0.60;;
5343;SDS011;2694;48.950;8.970;2022-09-09T05:33:52;1.95;;;0.68;;
5343;SDS011;2694;48.950;8.970;2022-09-09T05:36:21;1.90;;;0.50;;
5343;SDS011;2694;48.950;8.970;2022-09-09T05:38:49;3.67;;;1.00;;
5343;SDS011;2694;48.950;8.970;2022-09-09T05:41:18;1.88;;;0.65;;
5343;SDS011;2694;48.950;8.970;2022-09-09T05:43:48;1.85;;;0.40;;
5343;SDS011;2694;48.950;8.970;2022-09-09T05:46:15;1.90;;;0.50;;
5343;SDS011;2694;48.950;8.970;2022-09-09T05:48:44;2.03;;;0.50;;
5343;SDS011;2694;48.950;8.970;2022-09-09T05:51:13;2.28;;;0.40;;
5343;SDS011;2694;48.950;8.970;2022-09-09T05:53:43;4.10;;;0.50;;
5343;SDS011;2694;48.950;8.970;2022-09-09T05:56:13;4.38;;;0.50;;
5343;SDS011;2694;48.950;8.970;2022-09-09T05:58:43;1.35;;;0.32;;
5343;SDS011;2694;48.950;8.970;2022-09-09T06:01:12;2.70;;;0.50;;
5343;SDS011;2694;48.950;8.970;2022-09-09T06:03:41;3.60;;;0.70;;
5343;SDS011;2694;48.950;8.970;2022-09-09T06:06:10;2.13;;;0.47;;
5343;SDS011;2694;48.950;8.970;2022-09-09T06:08:38;1.50;;;0.40;;
5343;SDS011;2694;48.950;8.970;2022-09-09T06:11:10;3.85;;;0.50;;
5343;SDS011;2694;48.950;8.970;2022-09-09T06:13:38;3.78;;;0.45;;
5343;SDS011;2694;48.950;8.970;2022-09-09T06:16:06;2.80;;;0.60;;
5343;SDS011;2694;48.950;8.970;2022-09-09T06:18:36;1.40;;;0.40;;
5343;SDS011;2694;48.950;8.970;2022-09-09T06:21:04;1.00;;;0.55;;
5343;SDS011;2694;48.950;8.970;2022-09-09T06:23:32;0.80;;;0.50;;
5343;SDS011;2694;48.950;8.970;2022-09-09T06:26:00;0.90;;;0.40;;
5343;SDS011;2694;48.950;8.970;2022-09-09T06:28:33;3.00;;;0.50;;
5343;SDS011;2694;48.950;8.970;2022-09-09T06:31:00;2.30;;;0.77;;
5343;SDS011;2694;48.950;8.970;2022-09-09T06:33:30;2.38;;;0.40;;
5343;SDS011;2694;48.950;8.970;2022-09-09T06:35:59;2.22;;;0.50;;
5343;SDS011;2694;48.950;8.970;2022-09-09T06:38:27;1.10;;;0.40;;
5343;SDS011;2694;48.950;8.970;2022-09-09T06:40:54;6.60;;;0.90;;
5343;SDS011;2694;48.950;8.970;2022-09-09T06:43:22;2.83;;;0.70;;
5343;SDS011;2694;48.950;8.970;2022-09-09T06:45:55;2.65;;;0.60;;
5343;SDS011;2694;48.950;8.970;2022-09-09T06:48:22;1.50;;;0.40;;
5343;SDS011;2694;48.950;8.970;2022-09-09T06:50:51;3.50;;;0.50;;
5343;SDS011;2694;48.950;8.970;2022-09-09T06:53:19;5.80;;;0.90;;
5343;SDS011;2694;48.950;8.970;2022-09-09T06:55:45;3.15;;;0.50;;
5343;SDS011;2694;48.950;8.970;2022-09-09T06:58:12;2.10;;;0.70;;
5343;SDS011;2694;48.950;8.970;2022-09-09T07:00:39;3.95;;;0.70;;
5343;SDS011;2694;48.950;8.970;2022-09-09T07:03:07;3.35;;;0.70;;
5343;SDS011;2694;48.950;8.970;2022-09-09T07:05:36;1.30;;;0.40;;
5343;SDS011;2694;48.950;8.970;2022-09-09T07:08:03;3.85;;;0.52;;
5343;SDS011;2694;48.950;8.970;2022-09-09T07:10:30;2.50;;;0.50;;
5343;SDS011;2694;48.950;8.970;2022-09-09T07:12:59;5.53;;;0.70;;
5343;SDS011;2694;48.950;8.970;2022-09-09T07:15:26;3.13;;;0.77;;
5343;SDS011;2694;48.950;8.970;2022-09-09T07:17:53;5.55;;;0.70;;
5343;SDS011;2694;48.950;8.970;2022-09-09T07:20:21;5.10;;;0.60;;
5343;SDS011;2694;48.950;8.970;2022-09-09T07:22:48;2.05;;;0.80;;
5343;SDS011;2694;48.950;8.970;2022-09-09T07:25:15;5.57;;;0.50;;
5343;SDS011;2694;48.950;8.970;2022-09-09T07:27:43;5.18;;;0.90;;
5343;SDS011;2694;48.950;8.970;2022-09-09T07:30:10;4.50;;;0.60;;
5343;SDS011;2694;48.950;8.970;2022-09-09T07:32:37;3.60;;;0.70;;
5343;SDS011;2694;48.950;8.970;2022-09-09T07:35:05;3.80;;;0.60;;
5343;SDS011;2694;48.950;8.970;2022-09-09T07:37:35;5.20;;;0.80;;
5343;SDS011;2694;48.950;8.970;2022-09-09T07:40:02;3.05;;;0.60;;
5343;SDS011;2694;48.950;8.970;2022-09-09T07:42:30;2.33;;;0.60;;
5343;SDS011;2694;48.950;8.970;2022-09-09T07:44:57;3.65;;;0.65;;
5343;SDS011;2694;48.950;8.970;2022-09-09T07:47:24;8.30;;;0.87;;
5343;SDS011;2694;48.950;8.970;2022-09-09T07:49:51;3.30;;;0.83;;
5343;SDS011;2694;48.950;8.970;2022-09-09T07:52:17;3.07;;;0.60;;
5343;SDS011;2694;48.950;8.970;2022-09-09T07:54:46;3.13;;;0.80;;
5343;SDS011;2694;48.950;8.970;2022-09-09T07:57:13;4.80;;;0.90;;
5343;SDS011;2694;48.950;8.970;2022-09-09T07:59:40;2.83;;;0.60;;
5343;SDS011;2694;48.950;8.970;2022-09-09T08:02:08;1.30;;;0.40;;
5343;SDS011;2694;48.950;8.970;2022-09-09T08:04:36;4.00;;;0.90;;
5343;SDS011;2694;48.950;8.970;2022-09-09T08:07:02;6.60;;;0.85;;
5343;SDS011;2694;48.950;8.970;2022-09-09T08:09:29;2.90;;;0.50;;
5343;SDS011;2694;48.950;8.970;2022-09-09T08:12:00;1.90;;;0.50;;
5343;SDS011;2694;48.950;8.970;2022-09-09T08:14:27;3.40;;;0.70;;
5343;SDS011;2694;48.950;8.970;2022-09-09T08:16:54;4.20;;;1.63;;
5343;SDS011;2694;48.950;8.970;2022-09-09T08:19:22;1.52;;;0.40;;
5343;SDS011;2694;48.950;8.970;2022-09-09T08:21:49;2.95;;;0.50;;
5343;SDS011;2694;48.950;8.970;2022-09-09T08:24:16;3.80;;;0.70;;
5343;SDS011;2694;48.950;8.970;2022-09-09T08:26:45;5.72;;;0.82;;
5343;SDS011;2694;48.950;8.970;2022-09-09T08:29:14;6.20;;;0.60;;
5343;SDS011;2694;48.950;8.970;2022-09-09T08:31:43;3.23;;;0.80;;
5343;SDS011;2694;48.950;8.970;2022-09-09T08:34:11;2.85;;;0.50;;
5343;SDS011;2694;48.950;8.970;2022-09-09T08:36:38;3.13;;;0.70;;
5343;SDS011;2694;48.950;8.970;2022-09-09T08:39:07;2.13;;;0.80;;
5343;SDS011;2694;48.950;8.970;2022-09-09T08:41:49;2.93;;;0.67;;
5343;SDS011;2694;48.950;8.970;2022-09-09T08:44:39;3.00;;;0.70;;
5343;SDS011;2694;48.950;8.970;2022-09-09T08:47:16;2.90;;;0.60;;
5343;SDS011;2694;48.950;8.970;2022-09-09T08:49:54;3.60;;;0.43;;
5343;SDS011;2694;48.950;8.970;2022-09-09T08:52:30;5.85;;;0.70;;
5343;SDS011;2694;48.950;8.970;2022-09-09T08:55:03;2.17;;;0.50;;
5343;SDS011;2694;48.950;8.970;2022-09-09T08:57:41;2.63;;;0.70;;
5343;SDS011;2694;48.950;8.970;2022-09-09T09:00:11;4.90;;;0.60;;
5343;SDS011;2694;48.950;8.970;2022-09-09T09:02:40;4.35;;;0.60;;
5343;SDS011;2694;48.950;8.970;2022-09-09T09:05:23;2.70;;;0.60;;
5343;SDS011;2694;48.950;8.970;2022-09-09T09:07:59;5.30;;;0.57;;
5343;SDS011;2694;48.950;8.970;2022-09-09T09:10:39;3.72;;;1.08;;
5343;SDS011;2694;48.950;8.970;2022-09-09T09:13:14;4.45;;;0.82;;
5343;SDS011;2694;48.950;8.970;2022-09-09T09:15:46;3.95;;;0.90;;
5343;SDS011;2694;48.950;8.970;2022-09-09T09:18:19;2.42;;;0.70;;
5343;SDS011;2694;48.950;8.970;2022-09-09T09:20:50;5.57;;;0.90;;
5343;SDS011;2694;48.950;8.970;2022-09-09T09:23:25;4.28;;;0.50;;
5343;SDS011;2694;48.950;8.970;2022-09-09T09:25:53;4.13;;;0.70;;
5343;SDS011;2694;48.950;8.970;2022-09-09T09:28:25;3.33;;;0.50;;
5343;SDS011;2694;48.950;8.970;2022-09-09T09:30:55;1.10;;;0.47;;
5343;SDS011;2694;48.950;8.970;2022-09-09T09:33:27;3.73;;;0.90;;
5343;SDS011;2694;48.950;8.970;2022-09-09T09:35:57;2.67;;;0.70;;
5343;SDS011;2694;48.950;8.970;2022-09-09T09:38:25;5.28;;;0.93;;
5343;SDS011;2694;48.950;8.970;2022-09-09T09:40:53;4.32;;;0.80;;
5343;SDS011;2694;48.950;8.970;2022-09-09T09:43:24;3.00;;;0.70;;
5343;SDS011;2694;48.950;8.970;2022-09-09T09:45:51;3.10;;;0.90;;
5343;SDS011;2694;48.950;8.970;2022-09-09T09:48:20;4.38;;;0.70;;
5343;SDS011;2694;48.950;8.970;2022-09-09T09:50:48;4.20;;;0.80;;
5343;SDS011;2694;48.950;8.970;2022-09-09T09:53:18;5.40;;;0.80;;
5343;SDS011;2694;48.950;8.970;2022-09-09T09:55:51;3.78;;;1.10;;
5343;SDS011;2694;48.950;8.970;2022-09-09T09:58:20;9.77;;;1.08;;
5343;SDS011;2694;48.950;8.970;2022-09-09T10:00:48;6.88;;;1.00;;
5343;SDS011;2694;48.950;8.970;2022-09-09T10:03:21;4.30;;;0.80;;
5343;SDS011;2694;48.950;8.970;2022-09-09T10:05:49;2.83;;;0.63;;
5343;SDS011;2694;48.950;8.970;2022-09-09T10:08:18;6.82;;;0.80;;
5343;SDS011;2694;48.950;8.970;2022-09-09T10:10:51;2.25;;;0.70;;
5343;SDS011;2694;48.950;8.970;2022-09-09T10:13:24;5.53;;;0.67;;
5343;SDS011;2694;48.950;8.970;2022-09-09T10:15:58;3.38;;;0.70;;
5343;SDS011;2694;48.950;8.970;2022-09-09T10:18:41;3.50;;;0.70;;
5343;SDS011;2694;48.950;8.970;2022-09-09T10:21:16;2.92;;;0.57;;
5343;SDS011;2694;48.950;8.970;2022-09-09T10:24:05;2.92;;;0.75;;
5343;SDS011;2694;48.950;8.970;2022-09-09T10:26:51;3.85;;;0.60;;
5343;SDS011;2694;48.950;8.970;2022-09-09T10:32:15;4.32;;;0.90;;
5343;SDS011;2694;48.950;8.970;2022-09-09T10:35:02;4.30;;;0.60;;
5343;SDS011;2694;48.950;8.970;2022-09-09T10:37:40;5.32;;;0.88;;
5343;SDS011;2694;48.950;8.970;2022-09-09T10:40:20;2.10;;;0.60;;
5343;SDS011;2694;48.950;8.970;2022-09-09T10:42:55;1.90;;;0.50;;
5343;SDS011;2694;48.950;8.970;2022-09-09T10:45:32;3.80;;;0.60;;
5343;SDS011;2694;48.950;8.970;2022-09-09T10:48:14;3.13;;;0.50;;
5343;SDS011;2694;48.950;8.970;2022-09-09T10:50:52;6.03;;;0.55;;
5343;SDS011;2694;48.950;8.970;2022-09-09T10:53:27;6.18;;;0.60;;
5343;SDS011;2694;48.950;8.970;2022-09-09T10:56:04;2.92;;;0.90;;
5343;SDS011;2694;48.950;8.970;2022-09-09T10:58:35;5.05;;;1.08;;
5343;SDS011;2694;48.950;8.970;2022-09-09T11:01:08;4.97;;;0.60;;
5343;SDS011;2694;48.950;8.970;2022-09-09T11:03:41;3.25;;;0.70;;
5343;SDS011;2694;48.950;8.970;2022-09-09T11:06:12;3.67;;;0.90;;
5343;SDS011;2694;48.950;8.970;2022-09-09T11:08:42;7.67;;;0.80;;
5343;SDS011;2694;48.950;8.970;2022-09-09T11:11:09;3.73;;;0.80;;
5343;SDS011;2694;48.950;8.970;2022-09-09T11:13:42;2.85;;;0.47;;
5343;SDS011;2694;48.950;8.970;2022-09-09T11:16:16;1.70;;;0.40;;
5343;SDS011;2694;48.950;8.970;2022-09-09T11:18:49;3.67;;;0.60;;
5343;SDS011;2694;48.950;8.970;2022-09-09T11:21:18;2.45;;;0.50;;
5343;SDS011;2694;48.950;8.970;2022-09-09T11:23:52;1.33;;;0.70;;
5343;SDS011;2694;48.950;8.970;2022-09-09T11:26:25;1.67;;;0.50;;
5343;SDS011;2694;48.950;8.970;2022-09-09T11:29:01;2.30;;;0.40;;
5343;SDS011;2694;48.950;8.970;2022-09-09T11:31:54;4.10;;;0.50;;
5343;SDS011;2694;48.950;8.970;2022-09-09T11:34:33;4.45;;;1.20;;
5343;SDS011;2694;48.950;8.970;2022-09-09T11:37:23;3.72;;;0.40;;
5343;SDS011;2694;48.950;8.970;2022-09-09T11:40:08;1.70;;;0.47;;
5343;SDS011;2694;48.950;8.970;2022-09-09T11:42:36;2.15;;;0.40;;
5343;SDS011;2694;48.950;8.970;2022-09-09T11:45:22;1.10;;;0.40;;
5343;SDS011;2694;48.950;8.970;2022-09-09T11:47:53;1.58;;;0.50;;
5343;SDS011;2694;48.950;8.970;2022-09-09T11:50:28;1.60;;;0.40;;
5343;SDS011;2694;48.950;8.970;2022-09-09T11:58:57;1.10;;;0.30;;
5343;SDS011;2694;48.950;8.970;2022-09-09T12:01:30;2.00;;;0.50;;
5343;SDS011;2694;48.950;8.970;2022-09-09T12:06:54;1.10;;;0.30;;
5343;SDS011;2694;48.950;8.970;2022-09-09T12:09:25;3.70;;;0.30;;
5343;SDS011;2694;48.950;8.970;2022-09-09T12:12:26;0.90;;;0.30;;
5343;SDS011;2694;48.950;8.970;2022-09-09T12:14:56;0.90;;;0.30;;
5343;SDS011;2694;48.950;8.970;2022-09-09T12:17:29;2.35;;;0.38;;
5343;SDS011;2694;48.950;8.970;2022-09-09T12:20:08;1.17;;;0.20;;
5343;SDS011;2694;48.950;8.970;2022-09-09T12:22:42;4.60;;;0.30;;
5343;SDS011;2694;48.950;8.970;2022-09-09T12:25:23;1.58;;;0.40;;
5343;SDS011;2694;48.950;8.970;2022-09-09T12:28:02;1.30;;;0.32;;
5343;SDS011;2694;48.950;8.970;2022-09-09T12:30:34;1.20;;;0.40;;
5343;SDS011;2694;48.950;8.970;2022-09-09T12:33:08;1.05;;;0.43;;
5343;SDS011;2694;48.950;8.970;2022-09-09T12:35:37;2.30;;;0.40;;
5343;SDS011;2694;48.950;8.970;2022-09-09T12:38:05;2.13;;;0.75;;
5343;SDS011;2694;48.950;8.970;2022-09-09T12:40:38;2.45;;;0.88;;
5343;SDS011;2694;48.950;8.970;2022-09-09T12:43:16;4.68;;;0.90;;
5343;SDS011;2694;48.950;8.970;2022-09-09T12:45:44;2.90;;;0.40;;
5343;SDS011;2694;48.950;8.970;2022-09-09T12:48:12;4.60;;;0.50;;
5343;SDS011;2694;48.950;8.970;2022-09-09T12:50:43;3.25;;;0.50;;
5343;SDS011;2694;48.950;8.970;2022-09-09T12:53:12;2.60;;;0.43;;
5343;SDS011;2694;48.950;8.970;2022-09-09T12:55:50;6.15;;;0.73;;
5343;SDS011;2694;48.950;8.970;2022-09-09T12:58:18;2.50;;;0.40;;
5343;SDS011;2694;48.950;8.970;2022-09-09T13:00:48;1.98;;;0.30;;
5343;SDS011;2694;48.950;8.970;2022-09-09T13:03:18;3.70;;;0.52;;
5343;SDS011;2694;48.950;8.970;2022-09-09T13:05:46;2.28;;;0.60;;
5343;SDS011;2694;48.950;8.970;2022-09-09T13:08:13;2.40;;;0.40;;
5343;SDS011;2694;48.950;8.970;2022-09-09T13:10:46;1.55;;;0.43;;
5343;SDS011;2694;48.950;8.970;2022-09-09T13:13:21;2.45;;;0.50;;
5343;SDS011;2694;48.950;8.970;2022-09-09T13:15:50;1.88;;;0.50;;
5343;SDS011;2694;48.950;8.970;2022-09-09T13:18:20;2.30;;;0.70;;
5343;SDS011;2694;48.950;8.970;2022-09-09T13:20:48;0.90;;;0.30;;
5343;SDS011;2694;48.950;8.970;2022-09-09T13:23:16;2.30;;;0.38;;
5343;SDS011;2694;48.950;8.970;2022-09-09T13:25:52;1.90;;;0.40;;
5343;SDS011;2694;48.950;8.970;2022-09-09T13:28:23;1.58;;;0.50;;
5343;SDS011;2694;48.950;8.970;2022-09-09T13:30:58;3.60;;;1.20;;
5343;SDS011;2694;48.950;8.970;2022-09-09T13:33:29;1.85;;;0.68;;
5343;SDS011;2694;48.950;8.970;2022-09-09T13:36:02;2.80;;;0.30;;
5343;SDS011;2694;48.950;8.970;2022-09-09T13:38:31;3.80;;;0.55;;
5343;SDS011;2694;48.950;8.970;2022-09-09T13:41:02;2.80;;;0.30;;
5343;SDS011;2694;48.950;8.970;2022-09-09T13:43:33;1.70;;;0.50;;
5343;SDS011;2694;48.950;8.970;2022-09-09T13:46:03;2.10;;;0.60;;
5343;SDS011;2694;48.950;8.970;2022-09-09T13:48:31;2.30;;;0.40;;
5343;SDS011;2694;48.950;8.970;2022-09-09T13:51:01;2.55;;;0.40;;
5343;SDS011;2694;48.950;8.970;2022-09-09T13:53:30;2.90;;;0.50;;
5343;SDS011;2694;48.950;8.970;2022-09-09T13:55:57;2.97;;;0.40;;
5343;SDS011;2694;48.950;8.970;2022-09-09T13:58:24;1.60;;;0.50;;
5343;SDS011;2694;48.950;8.970;2022-09-09T14:00:53;2.50;;;0.30;;
5343;SDS011;2694;48.950;8.970;2022-09-09T14:03:20;3.20;;;0.40;;
5343;SDS011;2694;48.950;8.970;2022-09-09T14:05:47;1.90;;;0.45;;
5343;SDS011;2694;48.950;8.970;2022-09-09T14:08:16;3.30;;;0.47;;
5343;SDS011;2694;48.950;8.970;2022-09-09T14:10:50;1.50;;;0.30;;
5343;SDS011;2694;48.950;8.970;2022-09-09T14:13:17;1.40;;;0.50;;
5343;SDS011;2694;48.950;8.970;2022-09-09T14:15:47;1.15;;;0.40;;
5343;SDS011;2694;48.950;8.970;2022-09-09T14:18:16;2.97;;;0.50;;
5343;SDS011;2694;48.950;8.970;2022-09-09T14:20:43;3.85;;;0.52;;
5343;SDS011;2694;48.950;8.970;2022-09-09T14:23:10;3.13;;;0.60;;
5343;SDS011;2694;48.950;8.970;2022-09-09T14:25:39;2.63;;;0.40;;
5343;SDS011;2694;48.950;8.970;2022-09-09T14:28:08;2.70;;;0.47;;
5343;SDS011;2694;48.950;8.970;2022-09-09T14:30:36;2.85;;;0.50;;
5343;SDS011;2694;48.950;8.970;2022-09-09T14:33:04;2.50;;;0.47;;
5343;SDS011;2694;48.950;8.970;2022-09-09T14:35:32;1.00;;;0.30;;
5343;SDS011;2694;48.950;8.970;2022-09-09T14:37:59;1.10;;;0.40;;
5343;SDS011;2694;48.950;8.970;2022-09-09T14:40:27;4.38;;;0.50;;
5343;SDS011;2694;48.950;8.970;2022-09-09T14:42:54;5.35;;;0.60;;
5343;SDS011;2694;48.950;8.970;2022-09-09T14:45:21;2.50;;;0.30;;
5343;SDS011;2694;48.950;8.970;2022-09-09T14:47:49;3.40;;;0.30;;
5343;SDS011;2694;48.950;8.970;2022-09-09T14:50:16;3.70;;;0.30;;
5343;SDS011;2694;48.950;8.970;2022-09-09T14:52:45;0.60;;;0.30;;
5343;SDS011;2694;48.950;8.970;2022-09-09T14:55:12;2.47;;;0.60;;
5343;SDS011;2694;48.950;8.970;2022-09-09T14:57:40;1.58;;;0.40;;
5343;SDS011;2694;48.950;8.970;2022-09-09T15:00:07;1.40;;;0.40;;
5343;SDS011;2694;48.950;8.970;2022-09-09T15:02:36;0.90;;;0.30;;
5343;SDS011;2694;48.950;8.970;2022-09-09T15:05:03;1.95;;;0.30;;
5343;SDS011;2694;48.950;8.970;2022-09-09T15:07:30;1.15;;;0.38;;
5343;SDS011;2694;48.950;8.970;2022-09-09T15:10:00;2.08;;;0.32;;
5343;SDS011;2694;48.950;8.970;2022-09-09T15:12:27;2.30;;;0.40;;
5343;SDS011;2694;48.950;8.970;2022-09-09T15:14:54;0.98;;;0.30;;
5343;SDS011;2694;48.950;8.970;2022-09-09T15:17:21;1.88;;;0.50;;
5343;SDS011;2694;48.950;8.970;2022-09-09T15:19:52;1.93;;;0.40;;
5343;SDS011;2694;48.950;8.970;2022-09-09T15:22:19;1.02;;;0.20;;
5343;SDS011;2694;48.950;8.970;2022-09-09T15:24:47;2.40;;;0.35;;
5343;SDS011;2694;48.950;8.970;2022-09-09T15:27:15;1.20;;;0.30;;
5343;SDS011;2694;48.950;8.970;2022-09-09T15:29:43;1.80;;;0.40;;
5343;SDS011;2694;48.950;8.970;2022-09-09T15:32:10;1.30;;;0.30;;
5343;SDS011;2694;48.950;8.970;2022-09-09T15:34:37;1.65;;;0.50;;
5343;SDS011;2694;48.950;8.970;2022-09-09T15:37:04;2.80;;;0.40;;
5343;SDS011;2694;48.950;8.970;2022-09-09T15:39:32;1.58;;;0.40;;
5343;SDS011;2694;48.950;8.970;2022-09-09T15:41:59;3.30;;;0.60;;
5343;SDS011;2694;48.950;8.970;2022-09-09T15:44:28;3.17;;;0.88;;
5343;SDS011;2694;48.950;8.970;2022-09-09T15:46:55;1.90;;;0.50;;
5343;SDS011;2694;48.950;8.970;2022-09-09T15:49:22;2.38;;;0.50;;